sensor_id;sensor_type;location;lat;lon;timestamp;P1;durP1;ratioP1;P2;durP2;ratioP2
68126;SDS011;54931;52.098;21.006;2024-01-15T00:00:25;18.60;;;8.10;;
68126;SDS011;54931;52.098;21.006;2024-01-15T00:03:13;9.80;;;4.80;;
68126;SDS011;54931;52.098;21.006;2024-01-15T00:05:41;20.10;;;8.70;;
68126;SDS011;54931;52.098;21.006;2024-01-15T00:08:09;19.20;;;8.70;;
68126;SDS011;54931;52.098;21.006;2024-01-15T00:10:37;22.60;;;9.80;;
68126;SDS011;54931;52.098;21.006;2024-01-15T00:13:06;16.20;;;7.20;;
68126;SDS011;54931;52.098;21.006;2024-01-15T00:15:33;18.40;;;8.10;;
68126;SDS011;54931;52.098;21.006;2024-01-15T00:18:01;16.60;;;7.50;;
68126;SDS011;54931;52.098;21.006;2024-01-15T00:20:28;19.20;;;8.10;;
68126;SDS011;54931;52.098;21.006;2024-01-15T00:22:56;22.80;;;10.60;;
68126;SDS011;54931;52.098;21.006;2024-01-15T00:25:23;22.30;;;9.60;;
68126;SDS011;54931;52.098;21.006;2024-01-15T00:27:51;20.70;;;9.20;;
68126;SDS011;54931;52.098;21.006;2024-01-15T00:30:18;18.90;;;9.70;;
68126;SDS011;54931;52.098;21.006;2024-01-15T00:32:46;19.50;;;9.00;;
68126;SDS011;54931;52.098;21.006;2024-01-15T00:35:14;16.60;;;8.80;;
68126;SDS011;54931;52.098;21.006;2024-01-15T00:37:41;16.80;;;7.80;;
68126;SDS011;54931;52.098;21.006;2024-01-15T00:40:09;21.10;;;9.80;;
68126;SDS011;54931;52.098;21.006;2024-01-15T00:42:37;19.00;;;8.30;;
68126;SDS011;54931;52.098;21.006;2024-01-15T00:45:05;11.30;;;4.30;;
68126;SDS011;54931;52.098;21.006;2024-01-15T00:47:34;19.00;;;8.60;;
68126;SDS011;54931;52.098;21.006;2024-01-15T00:50:02;16.00;;;8.00;;
68126;SDS011;54931;52.098;21.006;2024-01-15T00:52:30;18.10;;;8.30;;
68126;SDS011;54931;52.098;21.006;2024-01-15T00:54:58;22.70;;;9.10;;
68126;SDS011;54931;52.098;21.006;2024-01-15T00:57:26;20.60;;;8.70;;
68126;SDS011;54931;52.098;21.006;2024-01-15T00:59:54;20.60;;;9.00;;
68126;SDS011;54931;52.098;21.006;2024-01-15T01:02:21;16.40;;;7.40;;
68126;SDS011;54931;52.098;21.006;2024-01-15T01:04:49;18.20;;;7.20;;
68126;SDS011;54931;52.098;21.006;2024-01-15T01:07:16;14.40;;;6.30;;
68126;SDS011;54931;52.098;21.006;2024-01-15T01:09:44;22.20;;;10.20;;
68126;SDS011;54931;52.098;21.006;2024-01-15T01:12:12;20.20;;;8.50;;
68126;SDS011;54931;52.098;21.006;2024-01-15T01:14:41;19.20;;;9.00;;
68126;SDS011;54931;52.098;21.006;2024-01-15T01:17:08;13.90;;;7.70;;
68126;SDS011;54931;52.098;21.006;2024-01-15T01:19:36;20.00;;;8.70;;
68126;SDS011;54931;52.098;21.006;2024-01-15T01:22:04;29.40;;;11.60;;
68126;SDS011;54931;52.098;21.006;2024-01-15T01:24:33;20.80;;;8.80;;
68126;SDS011;54931;52.098;21.006;2024-01-15T01:27:00;31.80;;;12.80;;
68126;SDS011;54931;52.098;21.006;2024-01-15T01:29:28;31.10;;;15.20;;
68126;SDS011;54931;52.098;21.006;2024-01-15T01:31:55;26.20;;;11.30;;
68126;SDS011;54931;52.098;21.006;2024-01-15T01:34:23;29.40;;;11.10;;
68126;SDS011;54931;52.098;21.006;2024-01-15T01:36:51;23.60;;;9.40;;
68126;SDS011;54931;52.098;21.006;2024-01-15T01:39:19;23.30;;;8.80;;
68126;SDS011;54931;52.098;21.006;2024-01-15T01:41:46;20.50;;;8.50;;
68126;SDS011;54931;52.098;21.006;2024-01-15T01:44:14;27.70;;;11.70;;
68126;SDS011;54931;52.098;21.006;2024-01-15T01:46:45;26.60;;;10.40;;
68126;SDS011;54931;52.098;21.006;2024-01-15T01:49:13;25.80;;;10.90;;
68126;SDS011;54931;52.098;21.006;2024-01-15T01:51:41;29.40;;;11.20;;
68126;SDS011;54931;52.098;21.006;2024-01-15T01:54:09;33.40;;;12.50;;
68126;SDS011;54931;52.098;21.006;2024-01-15T01:56:41;30.80;;;14.20;;
68126;SDS011;54931;52.098;21.006;2024-01-15T01:59:10;27.50;;;10.40;;
68126;SDS011;54931;52.098;21.006;2024-01-15T02:01:39;31.70;;;12.40;;
68126;SDS011;54931;52.098;21.006;2024-01-15T02:04:09;22.60;;;8.40;;
68126;SDS011;54931;52.098;21.006;2024-01-15T02:06:36;24.80;;;10.50;;
68126;SDS011;54931;52.098;21.006;2024-01-15T02:09:04;26.00;;;7.10;;
68126;SDS011;54931;52.098;21.006;2024-01-15T02:11:36;20.90;;;9.00;;
68126;SDS011;54931;52.098;21.006;2024-01-15T02:14:05;25.20;;;11.40;;
68126;SDS011;54931;52.098;21.006;2024-01-15T02:16:33;21.10;;;8.60;;
68126;SDS011;54931;52.098;21.006;2024-01-15T02:19:00;25.30;;;10.40;;
68126;SDS011;54931;52.098;21.006;2024-01-15T02:21:28;18.40;;;8.70;;
68126;SDS011;54931;52.098;21.006;2024-01-15T02:23:56;23.90;;;10.80;;
68126;SDS011;54931;52.098;21.006;2024-01-15T02:26:24;26.70;;;12.20;;
68126;SDS011;54931;52.098;21.006;2024-01-15T02:28:51;24.60;;;10.30;;
68126;SDS011;54931;52.098;21.006;2024-01-15T02:31:19;28.20;;;11.60;;
68126;SDS011;54931;52.098;21.006;2024-01-15T02:33:47;17.50;;;6.90;;
68126;SDS011;54931;52.098;21.006;2024-01-15T02:36:15;22.20;;;10.10;;
68126;SDS011;54931;52.098;21.006;2024-01-15T02:38:43;20.80;;;8.60;;
68126;SDS011;54931;52.098;21.006;2024-01-15T02:41:10;20.10;;;8.30;;
68126;SDS011;54931;52.098;21.006;2024-01-15T02:43:41;17.40;;;8.40;;
68126;SDS011;54931;52.098;21.006;2024-01-15T02:46:09;15.40;;;7.40;;
68126;SDS011;54931;52.098;21.006;2024-01-15T02:48:36;21.20;;;8.90;;
68126;SDS011;54931;52.098;21.006;2024-01-15T02:51:04;22.20;;;8.40;;
68126;SDS011;54931;52.098;21.006;2024-01-15T02:53:31;22.90;;;10.10;;
68126;SDS011;54931;52.098;21.006;2024-01-15T02:55:59;22.40;;;9.40;;
68126;SDS011;54931;52.098;21.006;2024-01-15T02:58:26;26.60;;;11.80;;
68126;SDS011;54931;52.098;21.006;2024-01-15T03:00:54;23.90;;;9.60;;
68126;SDS011;54931;52.098;21.006;2024-01-15T03:03:21;24.30;;;8.90;;
68126;SDS011;54931;52.098;21.006;2024-01-15T03:05:49;27.00;;;9.80;;
68126;SDS011;54931;52.098;21.006;2024-01-15T03:08:17;21.80;;;8.50;;
68126;SDS011;54931;52.098;21.006;2024-01-15T03:10:44;25.90;;;11.50;;
68126;SDS011;54931;52.098;21.006;2024-01-15T03:13:12;20.70;;;8.70;;
68126;SDS011;54931;52.098;21.006;2024-01-15T03:15:39;20.70;;;8.30;;
68126;SDS011;54931;52.098;21.006;2024-01-15T03:18:07;15.90;;;6.70;;
68126;SDS011;54931;52.098;21.006;2024-01-15T03:20:35;25.60;;;10.90;;
68126;SDS011;54931;52.098;21.006;2024-01-15T03:23:02;22.80;;;9.70;;
68126;SDS011;54931;52.098;21.006;2024-01-15T03:25:30;19.20;;;7.20;;
68126;SDS011;54931;52.098;21.006;2024-01-15T03:27:58;24.00;;;11.00;;
68126;SDS011;54931;52.098;21.006;2024-01-15T03:30:25;19.80;;;6.80;;
68126;SDS011;54931;52.098;21.006;2024-01-15T03:32:53;20.90;;;8.40;;
68126;SDS011;54931;52.098;21.006;2024-01-15T03:35:20;16.10;;;7.40;;
68126;SDS011;54931;52.098;21.006;2024-01-15T03:37:49;23.60;;;10.10;;
68126;SDS011;54931;52.098;21.006;2024-01-15T03:40:17;21.90;;;7.80;;
68126;SDS011;54931;52.098;21.006;2024-01-15T03:42:46;17.70;;;7.30;;
68126;SDS011;54931;52.098;21.006;2024-01-15T03:45:14;28.80;;;12.10;;
68126;SDS011;54931;52.098;21.006;2024-01-15T03:47:42;23.90;;;9.80;;
68126;SDS011;54931;52.098;21.006;2024-01-15T03:50:09;15.50;;;7.30;;
68126;SDS011;54931;52.098;21.006;2024-01-15T03:52:40;25.90;;;10.30;;
68126;SDS011;54931;52.098;21.006;2024-01-15T03:55:08;16.10;;;6.70;;
68126;SDS011;54931;52.098;21.006;2024-01-15T03:57:35;19.60;;;8.50;;
68126;SDS011;54931;52.098;21.006;2024-01-15T04:00:04;25.90;;;10.40;;
68126;SDS011;54931;52.098;21.006;2024-01-15T04:02:34;22.10;;;8.60;;
68126;SDS011;54931;52.098;21.006;2024-01-15T04:05:02;16.70;;;7.30;;
68126;SDS011;54931;52.098;21.006;2024-01-15T04:07:30;18.80;;;8.00;;
68126;SDS011;54931;52.098;21.006;2024-01-15T04:09:58;10.50;;;5.80;;
68126;SDS011;54931;52.098;21.006;2024-01-15T04:12:26;19.70;;;9.30;;
68126;SDS011;54931;52.098;21.006;2024-01-15T04:14:54;19.70;;;8.10;;
68126;SDS011;54931;52.098;21.006;2024-01-15T04:17:21;26.10;;;9.80;;
68126;SDS011;54931;52.098;21.006;2024-01-15T04:19:49;17.00;;;5.80;;
68126;SDS011;54931;52.098;21.006;2024-01-15T04:22:16;24.80;;;10.90;;
68126;SDS011;54931;52.098;21.006;2024-01-15T04:24:44;21.10;;;8.90;;
68126;SDS011;54931;52.098;21.006;2024-01-15T04:27:12;22.90;;;8.90;;
68126;SDS011;54931;52.098;21.006;2024-01-15T04:29:40;22.80;;;10.90;;
68126;SDS011;54931;52.098;21.006;2024-01-15T04:32:07;23.10;;;10.30;;
68126;SDS011;54931;52.098;21.006;2024-01-15T04:34:35;26.20;;;10.40;;
68126;SDS011;54931;52.098;21.006;2024-01-15T04:37:03;22.10;;;9.20;;
68126;SDS011;54931;52.098;21.006;2024-01-15T04:39:30;21.90;;;10.20;;
68126;SDS011;54931;52.098;21.006;2024-01-15T04:41:58;21.00;;;8.80;;
68126;SDS011;54931;52.098;21.006;2024-01-15T04:44:25;25.30;;;10.90;;
68126;SDS011;54931;52.098;21.006;2024-01-15T04:46:53;19.00;;;8.40;;
68126;SDS011;54931;52.098;21.006;2024-01-15T04:49:20;15.10;;;6.70;;
68126;SDS011;54931;52.098;21.006;2024-01-15T04:51:48;18.50;;;7.50;;
68126;SDS011;54931;52.098;21.006;2024-01-15T04:54:15;10.90;;;5.10;;
68126;SDS011;54931;52.098;21.006;2024-01-15T04:56:44;19.90;;;8.40;;
68126;SDS011;54931;52.098;21.006;2024-01-15T04:59:13;15.60;;;6.10;;
68126;SDS011;54931;52.098;21.006;2024-01-15T05:01:41;25.00;;;11.40;;
68126;SDS011;54931;52.098;21.006;2024-01-15T05:04:09;26.40;;;10.70;;
68126;SDS011;54931;52.098;21.006;2024-01-15T05:06:36;26.20;;;10.90;;
68126;SDS011;54931;52.098;21.006;2024-01-15T05:09:06;16.30;;;7.20;;
68126;SDS011;54931;52.098;21.006;2024-01-15T05:11:34;13.80;;;6.70;;
68126;SDS011;54931;52.098;21.006;2024-01-15T05:14:02;21.10;;;9.70;;
68126;SDS011;54931;52.098;21.006;2024-01-15T05:16:29;23.80;;;8.70;;
68126;SDS011;54931;52.098;21.006;2024-01-15T05:18:57;26.60;;;12.30;;
68126;SDS011;54931;52.098;21.006;2024-01-15T05:21:25;26.20;;;11.40;;
68126;SDS011;54931;52.098;21.006;2024-01-15T05:23:52;18.60;;;7.20;;
68126;SDS011;54931;52.098;21.006;2024-01-15T05:26:19;14.40;;;6.60;;
68126;SDS011;54931;52.098;21.006;2024-01-15T05:28:47;13.20;;;6.20;;
68126;SDS011;54931;52.098;21.006;2024-01-15T05:31:14;15.80;;;6.90;;
68126;SDS011;54931;52.098;21.006;2024-01-15T05:33:42;19.00;;;7.80;;
68126;SDS011;54931;52.098;21.006;2024-01-15T05:36:10;27.70;;;11.40;;
68126;SDS011;54931;52.098;21.006;2024-01-15T05:38:38;20.10;;;8.20;;
68126;SDS011;54931;52.098;21.006;2024-01-15T05:41:07;18.60;;;8.80;;
68126;SDS011;54931;52.098;21.006;2024-01-15T05:43:34;14.60;;;6.50;;
68126;SDS011;54931;52.098;21.006;2024-01-15T05:46:02;18.70;;;9.30;;
68126;SDS011;54931;52.098;21.006;2024-01-15T05:48:30;18.90;;;8.00;;
68126;SDS011;54931;52.098;21.006;2024-01-15T05:50:57;20.30;;;7.80;;
68126;SDS011;54931;52.098;21.006;2024-01-15T05:53:24;18.60;;;8.60;;
68126;SDS011;54931;52.098;21.006;2024-01-15T05:55:52;21.70;;;8.60;;
68126;SDS011;54931;52.098;21.006;2024-01-15T05:58:21;25.50;;;11.30;;
68126;SDS011;54931;52.098;21.006;2024-01-15T06:00:48;21.00;;;9.70;;
68126;SDS011;54931;52.098;21.006;2024-01-15T06:03:17;17.80;;;8.30;;
68126;SDS011;54931;52.098;21.006;2024-01-15T06:05:45;21.90;;;10.50;;
68126;SDS011;54931;52.098;21.006;2024-01-15T06:08:12;18.70;;;9.60;;
68126;SDS011;54931;52.098;21.006;2024-01-15T06:10:41;11.80;;;6.00;;
68126;SDS011;54931;52.098;21.006;2024-01-15T06:13:09;22.60;;;9.20;;
68126;SDS011;54931;52.098;21.006;2024-01-15T06:15:37;11.50;;;5.70;;
68126;SDS011;54931;52.098;21.006;2024-01-15T06:18:05;21.90;;;9.00;;
68126;SDS011;54931;52.098;21.006;2024-01-15T06:20:33;23.90;;;10.20;;
68126;SDS011;54931;52.098;21.006;2024-01-15T06:23:03;17.80;;;9.00;;
68126;SDS011;54931;52.098;21.006;2024-01-15T06:25:31;19.20;;;7.30;;
68126;SDS011;54931;52.098;21.006;2024-01-15T06:27:58;13.80;;;6.80;;
68126;SDS011;54931;52.098;21.006;2024-01-15T06:30:27;15.10;;;7.20;;
68126;SDS011;54931;52.098;21.006;2024-01-15T06:32:55;16.60;;;8.50;;
68126;SDS011;54931;52.098;21.006;2024-01-15T06:35:22;16.40;;;8.10;;
68126;SDS011;54931;52.098;21.006;2024-01-15T06:37:50;17.20;;;8.30;;
68126;SDS011;54931;52.098;21.006;2024-01-15T06:40:18;14.60;;;7.00;;
68126;SDS011;54931;52.098;21.006;2024-01-15T06:42:46;13.70;;;6.60;;
68126;SDS011;54931;52.098;21.006;2024-01-15T06:45:15;15.90;;;7.20;;
68126;SDS011;54931;52.098;21.006;2024-01-15T06:47:42;16.70;;;7.60;;
68126;SDS011;54931;52.098;21.006;2024-01-15T06:50:10;18.90;;;8.60;;
68126;SDS011;54931;52.098;21.006;2024-01-15T06:52:38;16.90;;;8.00;;
68126;SDS011;54931;52.098;21.006;2024-01-15T06:55:07;20.70;;;8.80;;
68126;SDS011;54931;52.098;21.006;2024-01-15T06:57:35;16.00;;;7.20;;
68126;SDS011;54931;52.098;21.006;2024-01-15T07:00:04;16.40;;;8.10;;
68126;SDS011;54931;52.098;21.006;2024-01-15T07:02:36;19.00;;;8.90;;
68126;SDS011;54931;52.098;21.006;2024-01-15T07:05:06;21.60;;;9.30;;
68126;SDS011;54931;52.098;21.006;2024-01-15T07:07:34;15.20;;;6.70;;
68126;SDS011;54931;52.098;21.006;2024-01-15T07:10:02;20.10;;;9.60;;
68126;SDS011;54931;52.098;21.006;2024-01-15T07:12:30;18.90;;;8.50;;
68126;SDS011;54931;52.098;21.006;2024-01-15T07:14:58;17.70;;;6.90;;
68126;SDS011;54931;52.098;21.006;2024-01-15T07:17:25;20.80;;;9.10;;
68126;SDS011;54931;52.098;21.006;2024-01-15T07:19:53;19.20;;;8.40;;
68126;SDS011;54931;52.098;21.006;2024-01-15T07:22:20;23.70;;;10.10;;
68126;SDS011;54931;52.098;21.006;2024-01-15T07:24:48;18.90;;;8.10;;
68126;SDS011;54931;52.098;21.006;2024-01-15T07:27:15;15.20;;;6.70;;
68126;SDS011;54931;52.098;21.006;2024-01-15T07:29:43;19.20;;;8.60;;
68126;SDS011;54931;52.098;21.006;2024-01-15T07:32:11;15.70;;;7.70;;
68126;SDS011;54931;52.098;21.006;2024-01-15T07:34:38;19.20;;;9.00;;
68126;SDS011;54931;52.098;21.006;2024-01-15T07:37:06;12.10;;;6.50;;
68126;SDS011;54931;52.098;21.006;2024-01-15T07:39:33;14.80;;;6.80;;
68126;SDS011;54931;52.098;21.006;2024-01-15T07:42:02;24.60;;;11.70;;
68126;SDS011;54931;52.098;21.006;2024-01-15T07:44:29;20.30;;;8.60;;
68126;SDS011;54931;52.098;21.006;2024-01-15T07:46:57;20.90;;;11.40;;
68126;SDS011;54931;52.098;21.006;2024-01-15T07:49:25;20.30;;;10.20;;
68126;SDS011;54931;52.098;21.006;2024-01-15T07:51:52;19.20;;;8.30;;
68126;SDS011;54931;52.098;21.006;2024-01-15T07:54:20;19.90;;;9.40;;
68126;SDS011;54931;52.098;21.006;2024-01-15T07:59:27;19.40;;;8.80;;
68126;SDS011;54931;52.098;21.006;2024-01-15T08:01:55;13.80;;;5.70;;
68126;SDS011;54931;52.098;21.006;2024-01-15T08:04:23;22.50;;;10.10;;
68126;SDS011;54931;52.098;21.006;2024-01-15T08:06:50;20.90;;;10.30;;
68126;SDS011;54931;52.098;21.006;2024-01-15T08:09:18;19.90;;;8.90;;
68126;SDS011;54931;52.098;21.006;2024-01-15T08:11:46;19.10;;;7.60;;
68126;SDS011;54931;52.098;21.006;2024-01-15T08:14:14;14.30;;;7.10;;
68126;SDS011;54931;52.098;21.006;2024-01-15T08:16:42;14.30;;;7.10;;
68126;SDS011;54931;52.098;21.006;2024-01-15T08:19:11;17.10;;;7.80;;
68126;SDS011;54931;52.098;21.006;2024-01-15T08:21:39;20.70;;;8.80;;
68126;SDS011;54931;52.098;21.006;2024-01-15T08:24:08;18.50;;;8.60;;
68126;SDS011;54931;52.098;21.006;2024-01-15T08:26:35;15.70;;;7.90;;
68126;SDS011;54931;52.098;21.006;2024-01-15T08:29:03;15.00;;;8.60;;
68126;SDS011;54931;52.098;21.006;2024-01-15T08:31:31;20.10;;;11.10;;
68126;SDS011;54931;52.098;21.006;2024-01-15T08:33:58;15.20;;;7.80;;
68126;SDS011;54931;52.098;21.006;2024-01-15T08:36:27;17.40;;;7.70;;
68126;SDS011;54931;52.098;21.006;2024-01-15T08:38:56;19.50;;;10.10;;
68126;SDS011;54931;52.098;21.006;2024-01-15T08:41:24;16.20;;;8.00;;
68126;SDS011;54931;52.098;21.006;2024-01-15T08:43:51;18.30;;;7.70;;
68126;SDS011;54931;52.098;21.006;2024-01-15T08:46:20;13.80;;;7.70;;
68126;SDS011;54931;52.098;21.006;2024-01-15T08:48:48;20.40;;;8.90;;
68126;SDS011;54931;52.098;21.006;2024-01-15T08:51:16;17.90;;;8.60;;
68126;SDS011;54931;52.098;21.006;2024-01-15T08:53:45;17.70;;;9.10;;
68126;SDS011;54931;52.098;21.006;2024-01-15T08:56:13;17.40;;;8.10;;
68126;SDS011;54931;52.098;21.006;2024-01-15T08:58:41;19.50;;;9.50;;
68126;SDS011;54931;52.098;21.006;2024-01-15T09:01:08;19.70;;;9.40;;
68126;SDS011;54931;52.098;21.006;2024-01-15T09:03:36;18.70;;;9.00;;
68126;SDS011;54931;52.098;21.006;2024-01-15T09:06:04;15.00;;;7.90;;
68126;SDS011;54931;52.098;21.006;2024-01-15T09:08:31;18.50;;;10.10;;
68126;SDS011;54931;52.098;21.006;2024-01-15T09:10:59;20.40;;;9.70;;
68126;SDS011;54931;52.098;21.006;2024-01-15T09:13:30;13.50;;;8.40;;
68126;SDS011;54931;52.098;21.006;2024-01-15T09:15:58;25.10;;;7.70;;
68126;SDS011;54931;52.098;21.006;2024-01-15T09:18:26;16.40;;;9.40;;
68126;SDS011;54931;52.098;21.006;2024-01-15T09:20:55;15.10;;;7.00;;
68126;SDS011;54931;52.098;21.006;2024-01-15T09:23:23;14.40;;;8.50;;
68126;SDS011;54931;52.098;21.006;2024-01-15T09:25:50;15.90;;;7.70;;
68126;SDS011;54931;52.098;21.006;2024-01-15T09:28:19;16.40;;;7.10;;
68126;SDS011;54931;52.098;21.006;2024-01-15T09:30:47;13.00;;;7.70;;
68126;SDS011;54931;52.098;21.006;2024-01-15T09:33:15;12.30;;;6.90;;
68126;SDS011;54931;52.098;21.006;2024-01-15T09:35:42;12.00;;;6.30;;
68126;SDS011;54931;52.098;21.006;2024-01-15T09:38:10;12.50;;;5.80;;
68126;SDS011;54931;52.098;21.006;2024-01-15T09:40:38;10.60;;;5.20;;
68126;SDS011;54931;52.098;21.006;2024-01-15T09:43:11;12.40;;;5.50;;
68126;SDS011;54931;52.098;21.006;2024-01-15T09:45:40;12.60;;;6.30;;
68126;SDS011;54931;52.098;21.006;2024-01-15T09:48:08;10.40;;;4.70;;
68126;SDS011;54931;52.098;21.006;2024-01-15T09:50:36;12.90;;;5.70;;
68126;SDS011;54931;52.098;21.006;2024-01-15T09:53:05;10.40;;;4.40;;
68126;SDS011;54931;52.098;21.006;2024-01-15T09:55:33;10.90;;;4.50;;
68126;SDS011;54931;52.098;21.006;2024-01-15T09:58:01;8.20;;;3.80;;
68126;SDS011;54931;52.098;21.006;2024-01-15T10:00:30;9.70;;;4.20;;
68126;SDS011;54931;52.098;21.006;2024-01-15T10:02:58;8.60;;;3.90;;
68126;SDS011;54931;52.098;21.006;2024-01-15T10:05:27;12.20;;;4.60;;
68126;SDS011;54931;52.098;21.006;2024-01-15T10:07:56;10.00;;;4.70;;
68126;SDS011;54931;52.098;21.006;2024-01-15T10:10:25;13.00;;;6.20;;
68126;SDS011;54931;52.098;21.006;2024-01-15T10:12:54;8.90;;;4.50;;
68126;SDS011;54931;52.098;21.006;2024-01-15T10:15:22;11.00;;;4.80;;
68126;SDS011;54931;52.098;21.006;2024-01-15T10:17:52;12.40;;;5.50;;
68126;SDS011;54931;52.098;21.006;2024-01-15T10:20:20;10.80;;;4.80;;
68126;SDS011;54931;52.098;21.006;2024-01-15T10:22:50;12.10;;;5.20;;
68126;SDS011;54931;52.098;21.006;2024-01-15T10:25:18;12.70;;;5.30;;
68126;SDS011;54931;52.098;21.006;2024-01-15T10:28:01;11.60;;;4.30;;
68126;SDS011;54931;52.098;21.006;2024-01-15T10:30:31;13.70;;;5.50;;
68126;SDS011;54931;52.098;21.006;2024-01-15T10:33:02;10.90;;;5.20;;
68126;SDS011;54931;52.098;21.006;2024-01-15T10:35:32;10.40;;;5.10;;
68126;SDS011;54931;52.098;21.006;2024-01-15T10:38:01;14.20;;;5.30;;
68126;SDS011;54931;52.098;21.006;2024-01-15T10:40:30;12.10;;;5.90;;
68126;SDS011;54931;52.098;21.006;2024-01-15T10:42:57;12.50;;;5.50;;
68126;SDS011;54931;52.098;21.006;2024-01-15T10:45:25;10.30;;;5.80;;
68126;SDS011;54931;52.098;21.006;2024-01-15T10:47:54;7.40;;;4.10;;
68126;SDS011;54931;52.098;21.006;2024-01-15T10:50:28;12.20;;;5.10;;
68126;SDS011;54931;52.098;21.006;2024-01-15T10:52:57;12.30;;;5.10;;
68126;SDS011;54931;52.098;21.006;2024-01-15T10:55:26;16.10;;;6.70;;
68126;SDS011;54931;52.098;21.006;2024-01-15T10:57:54;15.20;;;6.30;;
68126;SDS011;54931;52.098;21.006;2024-01-15T11:00:23;13.50;;;5.80;;
68126;SDS011;54931;52.098;21.006;2024-01-15T11:02:52;11.00;;;5.70;;
68126;SDS011;54931;52.098;21.006;2024-01-15T11:05:22;12.40;;;6.50;;
68126;SDS011;54931;52.098;21.006;2024-01-15T11:07:50;10.80;;;6.10;;
68126;SDS011;54931;52.098;21.006;2024-01-15T11:10:44;13.90;;;5.90;;
68126;SDS011;54931;52.098;21.006;2024-01-15T11:16:05;12.80;;;6.70;;
68126;SDS011;54931;52.098;21.006;2024-01-15T11:18:42;9.90;;;4.90;;
68126;SDS011;54931;52.098;21.006;2024-01-15T11:21:30;14.80;;;6.10;;
68126;SDS011;54931;52.098;21.006;2024-01-15T11:24:01;10.30;;;4.60;;
68126;SDS011;54931;52.098;21.006;2024-01-15T11:29:05;15.00;;;6.40;;
68126;SDS011;54931;52.098;21.006;2024-01-15T11:34:21;14.80;;;6.10;;
68126;SDS011;54931;52.098;21.006;2024-01-15T11:37:19;12.00;;;5.70;;
68126;SDS011;54931;52.098;21.006;2024-01-15T11:39:51;12.00;;;5.70;;
68126;SDS011;54931;52.098;21.006;2024-01-15T11:42:23;14.80;;;6.20;;
68126;SDS011;54931;52.098;21.006;2024-01-15T11:44:52;12.20;;;5.60;;
68126;SDS011;54931;52.098;21.006;2024-01-15T11:53:00;14.20;;;7.70;;
68126;SDS011;54931;52.098;21.006;2024-01-15T11:55:35;14.80;;;5.70;;
68126;SDS011;54931;52.098;21.006;2024-01-15T11:58:09;15.10;;;6.40;;
68126;SDS011;54931;52.098;21.006;2024-01-15T12:00:47;12.80;;;5.70;;
68126;SDS011;54931;52.098;21.006;2024-01-15T12:03:17;13.50;;;5.40;;
68126;SDS011;54931;52.098;21.006;2024-01-15T12:05:48;12.40;;;6.00;;
68126;SDS011;54931;52.098;21.006;2024-01-15T12:08:21;12.80;;;6.30;;
68126;SDS011;54931;52.098;21.006;2024-01-15T12:10:49;12.70;;;6.60;;
68126;SDS011;54931;52.098;21.006;2024-01-15T12:13:17;14.20;;;6.50;;
68126;SDS011;54931;52.098;21.006;2024-01-15T12:15:46;12.40;;;6.20;;
68126;SDS011;54931;52.098;21.006;2024-01-15T12:18:16;15.90;;;6.50;;
68126;SDS011;54931;52.098;21.006;2024-01-15T12:20:45;12.20;;;6.30;;
68126;SDS011;54931;52.098;21.006;2024-01-15T12:23:16;16.40;;;7.60;;
68126;SDS011;54931;52.098;21.006;2024-01-15T12:25:45;14.00;;;7.20;;
68126;SDS011;54931;52.098;21.006;2024-01-15T12:28:14;16.40;;;7.80;;
68126;SDS011;54931;52.098;21.006;2024-01-15T12:30:42;10.80;;;4.00;;
68126;SDS011;54931;52.098;21.006;2024-01-15T12:33:10;8.60;;;4.10;;
68126;SDS011;54931;52.098;21.006;2024-01-15T12:35:38;17.60;;;6.70;;
68126;SDS011;54931;52.098;21.006;2024-01-15T12:38:07;16.30;;;7.60;;
68126;SDS011;54931;52.098;21.006;2024-01-15T12:40:34;13.30;;;7.50;;
68126;SDS011;54931;52.098;21.006;2024-01-15T12:43:06;13.80;;;6.40;;
68126;SDS011;54931;52.098;21.006;2024-01-15T12:45:34;18.90;;;8.80;;
68126;SDS011;54931;52.098;21.006;2024-01-15T12:48:05;15.40;;;6.60;;
68126;SDS011;54931;52.098;21.006;2024-01-15T12:50:34;14.70;;;6.30;;
68126;SDS011;54931;52.098;21.006;2024-01-15T12:53:03;17.50;;;7.70;;
68126;SDS011;54931;52.098;21.006;2024-01-15T12:55:31;13.80;;;7.20;;
68126;SDS011;54931;52.098;21.006;2024-01-15T12:57:59;13.50;;;5.90;;
68126;SDS011;54931;52.098;21.006;2024-01-15T13:00:26;15.70;;;6.50;;
68126;SDS011;54931;52.098;21.006;2024-01-15T13:02:54;16.70;;;7.90;;
68126;SDS011;54931;52.098;21.006;2024-01-15T13:05:26;18.90;;;7.20;;
68126;SDS011;54931;52.098;21.006;2024-01-15T13:07:54;14.30;;;6.50;;
68126;SDS011;54931;52.098;21.006;2024-01-15T13:10:22;16.80;;;6.80;;
68126;SDS011;54931;52.098;21.006;2024-01-15T13:12:50;19.40;;;8.80;;
68126;SDS011;54931;52.098;21.006;2024-01-15T13:15:18;18.80;;;7.10;;
68126;SDS011;54931;52.098;21.006;2024-01-15T13:17:46;15.90;;;6.70;;
68126;SDS011;54931;52.098;21.006;2024-01-15T13:20:13;20.80;;;8.20;;
68126;SDS011;54931;52.098;21.006;2024-01-15T13:22:41;22.60;;;10.10;;
68126;SDS011;54931;52.098;21.006;2024-01-15T13:25:11;18.40;;;8.70;;
68126;SDS011;54931;52.098;21.006;2024-01-15T13:27:39;15.10;;;7.00;;
68126;SDS011;54931;52.098;21.006;2024-01-15T13:30:12;16.80;;;7.60;;
68126;SDS011;54931;52.098;21.006;2024-01-15T13:32:39;11.10;;;5.30;;
68126;SDS011;54931;52.098;21.006;2024-01-15T13:35:08;14.40;;;6.70;;
68126;SDS011;54931;52.098;21.006;2024-01-15T13:37:37;18.30;;;7.10;;
68126;SDS011;54931;52.098;21.006;2024-01-15T13:40:05;15.60;;;6.90;;
68126;SDS011;54931;52.098;21.006;2024-01-15T13:42:36;15.30;;;6.40;;
68126;SDS011;54931;52.098;21.006;2024-01-15T13:45:08;17.40;;;7.40;;
68126;SDS011;54931;52.098;21.006;2024-01-15T13:47:35;15.20;;;6.20;;
68126;SDS011;54931;52.098;21.006;2024-01-15T13:50:05;14.20;;;6.00;;
68126;SDS011;54931;52.098;21.006;2024-01-15T13:52:34;14.70;;;5.90;;
68126;SDS011;54931;52.098;21.006;2024-01-15T13:55:02;15.60;;;7.50;;
68126;SDS011;54931;52.098;21.006;2024-01-15T13:57:30;16.40;;;6.40;;
68126;SDS011;54931;52.098;21.006;2024-01-15T13:59:58;17.30;;;6.20;;
68126;SDS011;54931;52.098;21.006;2024-01-15T14:02:26;15.60;;;7.00;;
68126;SDS011;54931;52.098;21.006;2024-01-15T14:04:53;14.40;;;6.70;;
68126;SDS011;54931;52.098;21.006;2024-01-15T14:07:21;19.20;;;7.50;;
68126;SDS011;54931;52.098;21.006;2024-01-15T14:09:49;15.20;;;6.30;;
68126;SDS011;54931;52.098;21.006;2024-01-15T14:12:17;18.60;;;7.20;;
68126;SDS011;54931;52.098;21.006;2024-01-15T14:14:45;12.70;;;6.20;;
68126;SDS011;54931;52.098;21.006;2024-01-15T14:17:13;19.10;;;8.40;;
68126;SDS011;54931;52.098;21.006;2024-01-15T14:19:40;17.20;;;8.00;;
68126;SDS011;54931;52.098;21.006;2024-01-15T14:22:08;15.70;;;6.60;;
68126;SDS011;54931;52.098;21.006;2024-01-15T14:24:36;16.40;;;8.10;;
68126;SDS011;54931;52.098;21.006;2024-01-15T14:27:04;19.80;;;8.70;;
68126;SDS011;54931;52.098;21.006;2024-01-15T14:29:32;14.50;;;5.30;;
68126;SDS011;54931;52.098;21.006;2024-01-15T14:32:00;19.60;;;8.30;;
68126;SDS011;54931;52.098;21.006;2024-01-15T14:34:28;21.90;;;8.20;;
68126;SDS011;54931;52.098;21.006;2024-01-15T14:36:58;15.00;;;6.50;;
68126;SDS011;54931;52.098;21.006;2024-01-15T14:39:25;14.80;;;7.10;;
68126;SDS011;54931;52.098;21.006;2024-01-15T14:41:53;18.50;;;8.00;;
68126;SDS011;54931;52.098;21.006;2024-01-15T14:44:21;12.40;;;5.60;;